Terminal Aerodrome Forecast
Issued by NWS

Home | Current Version | Previous Version | Text Only | Print | Product List | Glossary On
Versions: 1 2 3 4 5 6 7 8 9 10 11 12 13
000
FTUS42 TJSJ 060537
TAFJBQ
TAF
TJBQ 060537Z 0606/0706 11007KT P6SM SKC
     FM061330 08018G25KT P6SM FEW030
     FM062230 10010KT P6SM SCT030
      AMD NOT SKED TIL 061100=

USA.gov is the U.S. government's official web portal to all federal, state and local government web resources and services.